Flight Track Log - Related Links

Times and Time Zones

All times are in EDT time to prevent confusion due to time zone crossing. See the SKW5576 flight status page for this flight to view local times or setup timezone preferences in your user account.

Time Position Orientation Groundspeed Altitude Reporting Facility
EDT Latitude Longitude Course Direction KTS MPH feet Rate Location/Type
Sat 05:22:33 PM 33.4333 -112.0333 20° North 171 197 2,100  Level Phoenix TRACON
Sat 05:23:40 PM 33.4333 -112.1167 270° West 220 253 4,300 1,705 Climbing Phoenix TRACON
Sat 05:24:08 PM 33.4339 -112.1361 272° West 214 246 4,800 1,551 Climbing Albuquerque Center
Sat 05:25:00 PM 33.8832 -111.8064 20° North  Level FlightAware Approximate
Sat 05:25:09 PM 33.4678 -112.2056 300° West 275 316 6,600  Level Albuquerque Center
Sat 05:26:00 PM 33.9958 -111.7571 20° North  Level FlightAware Approximate
Sat 05:26:11 PM 33.5492 -112.1897 North 296 341 9,000  Level Albuquerque Center
Sat 05:27:00 PM 34.1085 -111.7080 20° North  Level FlightAware Approximate
Sat 05:27:12 PM 33.6319 -112.1689 12° North 302 348 11,300  Level Albuquerque Center
Sat 05:28:14 PM 33.7122 -112.0883 40° Northeast 315 362 13,400 1,597 Climbing Albuquerque Center
Sat 05:29:16 PM 33.7844 -112.0122 41° Northeast 344 396 14,600 1,317 Climbing Albuquerque Center
Sat 05:30:17 PM 33.8608 -111.9314 41° Northeast 363 418 16,100 1,561 Climbing Albuquerque Center
Sat 05:31:19 PM 33.9369 -111.8511 41° Northeast 365 420 17,800 1,512 Climbing Albuquerque Center
Sat 05:32:20 PM 34.0208 -111.7611 42° Northeast 370 426 19,200 1,024 Climbing Albuquerque Center
Sat 05:33:22 PM 34.1200 -111.7019 26° Northeast 372 428 19,900 581 Climbing Albuquerque Center
Sat 05:34:24 PM 34.2153 -111.6653 18° North 388 447 20,400 488 Climbing Albuquerque Center
Sat 05:35:25 PM 34.3208 -111.6236 18° North 397 457 20,900 732 Climbing Albuquerque Center
Sat 05:36:27 PM 34.4278 -111.5806 18° North 402 463 21,900 976 Climbing Albuquerque Center
Sat 05:37:28 PM 34.5339 -111.5381 18° North 403 464 22,900 878 Climbing Albuquerque Center
Sat 05:38:30 PM 34.6150 -111.4319 47° Northeast 427 491 23,700 976 Climbing Albuquerque Center
Sat 05:39:31 PM 34.7072 -111.3014 49° Northeast 427 491 24,900 1,073 Climbing Albuquerque Center
Sat 05:40:33 PM 34.7839 -111.1942 49° Northeast 423 487 25,900 927 Climbing Albuquerque Center
Sat 05:41:34 PM 34.8586 -111.0858 50° Northeast 419 482 26,800 732 Climbing Albuquerque Center
Sat 05:42:36 PM 34.9333 -110.9756 50° Northeast 421 484 27,400 634 Climbing Albuquerque Center
Sat 05:43:37 PM 35.0097 -110.8678 49° Northeast 420 483 28,100 585 Climbing Albuquerque Center
Sat 05:44:39 PM 35.0922 -110.7461 50° Northeast 429 494 28,600 537 Climbing Albuquerque Center
Sat 05:45:40 PM 35.1761 -110.6161 52° Northeast 435 501 29,200 537 Climbing Albuquerque Center
Sat 05:46:42 PM 35.2483 -110.5050 51° Northeast 436 502 29,700 488 Climbing Albuquerque Center
Sat 05:47:43 PM 35.3192 -110.3919 52° Northeast 436 502 30,200 488 Climbing Albuquerque Center
Sat 05:48:45 PM 35.4047 -110.2625 51° Northeast 437 503 30,700 488 Climbing Albuquerque Center
Sat 05:49:46 PM 35.4758 -110.1492 52° Northeast 437 503 31,200 537 Climbing Albuquerque Center
Sat 05:50:48 PM 35.5594 -110.0194 52° Northeast 435 501 31,800 488 Climbing Albuquerque Center
Sat 05:51:49 PM 35.6306 -109.9067 52° Northeast 435 501 32,200 341 Climbing Albuquerque Center
Sat 05:52:51 PM 35.7019 -109.7958 52° Northeast 433 498 32,500 341 Climbing Albuquerque Center
Sat 05:53:52 PM 35.7847 -109.6653 52° Northeast 432 497 32,900 244 Climbing Albuquerque Center
Sat 05:54:54 PM 35.8553 -109.5517 53° Northeast 435 501 33,000 71 Climbing Albuquerque Center
Sat 05:55:16 PM 35.8797 -109.5142 51° Northeast 438 504 33,000  Level Denver Center
Sat 05:56:17 PM 35.9628 -109.3814 52° Northeast 437 503 33,000  Level Denver Center
Sat 05:56:57 PM 36.0108 -109.3047 52° Northeast 437 503 33,000  Level Albuquerque Center
Sat 05:57:58 PM 36.0828 -109.1897 52° Northeast 438 504 33,000  Level Albuquerque Center
Sat 05:58:59 PM 36.1567 -109.0722 52° Northeast 440 506 33,000  Level Albuquerque Center
Sat 05:59:23 PM 36.1917 -109.0164 52° Northeast 440 506 33,000  Level Denver Center
Sat 06:00:24 PM 36.2744 -108.9133 45° Northeast 438 504 33,000  Level Denver Center
Sat 06:01:26 PM 36.3789 -108.8083 39° Northeast 430 495 33,000  Level Denver Center
Sat 06:02:27 PM 36.4672 -108.7181 39° Northeast 428 493 33,000  Level Denver Center
Sat 06:03:29 PM 36.5711 -108.6122 39° Northeast 431 496 33,000  Level Denver Center
Sat 06:04:30 PM 36.6600 -108.5214 39° Northeast 431 496 33,000 195 Level Denver Center
Sat 06:05:32 PM 36.7503 -108.4269 40° Northeast 440 506 33,400 339 Climbing Denver Center
Sat 06:06:34 PM 36.8556 -108.3194 39° Northeast 439 505 33,700 293 Climbing Denver Center
Sat 06:07:35 PM 36.9456 -108.2269 39° Northeast 438 504 34,000 293 Climbing Denver Center
Sat 06:08:37 PM 37.0494 -108.1186 40° Northeast 437 503 34,300 293 Climbing Denver Center
Sat 06:09:38 PM 37.1392 -108.0275 39° Northeast 435 501 34,600 293 Climbing Denver Center
Sat 06:10:40 PM 37.2275 -107.9339 40° Northeast 433 498 34,900 244 Climbing Denver Center
Sat 06:11:41 PM 37.3306 -107.8242 40° Northeast 432 497 35,100 49 Climbing Denver Center
Sat 06:12:43 PM 37.4208 -107.7311 39° Northeast 439 505 35,000 -49 Descending Denver Center
Sat 06:13:44 PM 37.5264 -107.6200 40° Northeast 442 509 35,000  Level Denver Center
Sat 06:14:46 PM 37.6172 -107.5242 40° Northeast 444 511 35,000  Level Denver Center
Sat 06:15:47 PM 37.7069 -107.4281 40° Northeast 443 510 35,000  Level Denver Center
Sat 06:16:49 PM 37.8144 -107.3156 40° Northeast 447 514 35,000  Level Denver Center
Sat 06:17:50 PM 37.9047 -107.2167 41° Northeast 446 513 35,000  Level Denver Center
Sat 06:18:52 PM 38.0108 -107.1028 40° Northeast 445 512 35,000  Level Denver Center
Sat 06:19:53 PM 38.0983 -107.0092 40° Northeast 452 520 35,000  Level Denver Center
Sat 06:20:55 PM 38.1936 -106.9064 40° Northeast 450 518 35,000  Level Denver Center
Sat 06:21:56 PM 38.3006 -106.7894 41° Northeast 451 519 35,000  Level Denver Center
Sat 06:22:58 PM 38.3850 -106.6986 40° Northeast 453 521 35,000  Level Denver Center
Sat 06:23:59 PM 38.4864 -106.5544 48° Northeast 461 531 35,000  Level Denver Center
Sat 06:25:01 PM 38.5653 -106.4300 51° Northeast 458 527 35,000  Level Denver Center
Sat 06:26:02 PM 38.6447 -106.3031 51° Northeast 457 526 35,000  Level Denver Center
Sat 06:27:03 PM 38.7328 -106.1628 51° Northeast 460 529 35,000  Level Denver Center
Sat 06:28:05 PM 38.8083 -106.0400 52° Northeast 459 528 35,000 -1,171 Level Denver Center
Sat 06:29:06 PM 38.8828 -105.9197 51° Northeast 460 529 32,600 -2,927 Descending Denver Center
Sat 06:30:08 PM 38.9758 -105.7669 52° Northeast 470 541 29,000 -3,220 Descending Denver Center
Sat 06:31:09 PM 39.0514 -105.6433 52° Northeast 463 533 26,000 -3,024 Descending Denver Center
Sat 06:32:11 PM 39.1364 -105.5036 52° Northeast 445 512 22,800 -3,073 Descending Denver Center
Sat 06:33:12 PM 39.2058 -105.3894 52° Northeast 419 482 19,700 -1,869 Descending Denver Center
Sat 06:34:13 PM 39.2628 -105.2828 55° Northeast 340 391 19,000 -927 Descending Denver Center
Sat 06:35:15 PM 39.3500 -105.2214 29° Northeast 334 384 17,800 -1,171 Descending Denver Center
Sat 06:36:16 PM 39.4356 -105.1756 22° Northeast 331 381 16,600 -1,073 Descending Denver Center
Sat 06:37:18 PM 39.5189 -105.1342 21° North 323 372 15,600 -1,073 Descending Denver Center
Sat 06:38:19 PM 39.6103 -105.0964 18° North 320 368 14,400 -1,512 Descending Denver Center
Sat 06:39:21 PM 39.6967 -105.0986 359° North 314 361 12,500 -1,805 Descending Denver Center
Sat 06:40:22 PM 39.7781 -105.0867 North 302 348 10,700 -1,854 Descending Denver Center
Sat 06:41:24 PM 39.8281 -105.0097 50° Northeast 282 325 8,700 -1,268 Descending Denver Center
Sat 06:42:25 PM 39.8425 -104.9150 79° East 251 289 8,100 -590 Descending Denver Center

Login

Don't have an account? Register now (free) for customized features, flight alerts, and more!